createdAt,value
2022-08-14T00:01:02.966Z,21.00
2022-08-14T00:03:37.693Z,21.00
2022-08-14T00:06:14.016Z,20.90
2022-08-14T00:11:39.023Z,20.80
2022-08-14T00:14:10.617Z,20.80
2022-08-14T00:16:45.028Z,20.70
2022-08-14T00:19:19.779Z,20.70
2022-08-14T00:21:52.147Z,20.70
2022-08-14T00:24:23.179Z,20.70
2022-08-14T00:26:56.786Z,20.70
2022-08-14T00:29:25.555Z,20.70
2022-08-14T00:31:56.649Z,20.70
2022-08-14T00:34:36.101Z,20.60
2022-08-14T00:37:12.481Z,20.60
2022-08-14T00:39:40.654Z,20.60
2022-08-14T00:42:21.481Z,20.60
2022-08-14T00:44:56.719Z,20.60
2022-08-14T00:47:23.754Z,20.60
2022-08-14T00:49:54.583Z,20.60
2022-08-14T00:52:21.448Z,20.50
2022-08-14T00:54:50.779Z,20.60
2022-08-14T00:57:19.088Z,20.60
2022-08-14T00:59:47.457Z,20.60
2022-08-14T01:02:20.489Z,20.60
2022-08-14T01:04:53.664Z,20.60
2022-08-14T01:07:22.947Z,20.60
2022-08-14T01:10:00.552Z,20.60
2022-08-14T01:12:29.131Z,20.50
2022-08-14T01:15:02.398Z,20.60
2022-08-14T01:17:31.895Z,20.50
2022-08-14T01:22:46.817Z,20.50
2022-08-14T01:25:13.620Z,20.50
2022-08-14T01:27:53.800Z,20.50
2022-08-14T01:30:24.597Z,20.40
2022-08-14T01:32:52.408Z,20.30
2022-08-14T01:36:03.672Z,20.30
2022-08-14T01:38:06.047Z,20.20
2022-08-14T01:40:36.634Z,20.30
2022-08-14T01:43:12.521Z,20.20
2022-08-14T01:45:41.102Z,20.20
2022-08-14T01:48:13.135Z,20.20
2022-08-14T01:50:42.131Z,20.20
2022-08-14T01:53:10.547Z,20.10
2022-08-14T01:55:38.193Z,20.10
2022-08-14T01:58:20.079Z,20.00
2022-08-14T02:00:49.909Z,20.00
2022-08-14T02:03:16.745Z,19.90
2022-08-14T02:05:43.619Z,19.80
2022-08-14T02:08:10.757Z,19.70
2022-08-14T02:10:46.803Z,19.70
2022-08-14T02:13:17.547Z,19.70
2022-08-14T02:15:44.932Z,19.70
2022-08-14T02:18:15.249Z,19.60
2022-08-14T02:20:42.483Z,19.50
2022-08-14T02:23:09.388Z,19.40
2022-08-14T02:25:38.308Z,19.40
2022-08-14T02:28:23.643Z,19.40
2022-08-14T02:30:53.270Z,19.40
2022-08-14T02:33:21.461Z,19.40
2022-08-14T02:35:53.577Z,19.40
2022-08-14T02:38:35.023Z,19.30
2022-08-14T02:41:02.637Z,19.30
2022-08-14T02:43:36.548Z,19.20
2022-08-14T02:46:06.394Z,19.30
2022-08-14T02:49:03.009Z,19.20
2022-08-14T02:54:19.563Z,19.20
2022-08-14T02:57:16.737Z,19.10
2022-08-14T02:59:35.737Z,19.10
2022-08-14T03:02:03.446Z,19.10
2022-08-14T03:04:31.284Z,19.10
2022-08-14T03:07:07.538Z,19.10
2022-08-14T03:10:24.459Z,19.10
2022-08-14T03:12:30.818Z,19.10
2022-08-14T03:15:00.086Z,19.00
2022-08-14T03:17:26.895Z,19.00
2022-08-14T03:19:58.957Z,19.00
2022-08-14T03:22:27.670Z,19.00
2022-08-14T03:24:54.699Z,19.00
2022-08-14T03:27:21.465Z,18.90
2022-08-14T03:32:40.117Z,18.90
2022-08-14T03:35:08.851Z,18.90
2022-08-14T03:39:10.059Z,18.80
2022-08-14T03:40:23.518Z,18.80
2022-08-14T03:45:40.503Z,18.80
2022-08-14T03:51:04.382Z,18.80
2022-08-14T03:53:36.770Z,18.70
2022-08-14T03:59:00.839Z,18.60
2022-08-14T04:01:29.314Z,18.70
2022-08-14T04:04:09.258Z,18.60
2022-08-14T04:06:47.744Z,18.50
2022-08-14T04:09:15.478Z,18.50
2022-08-14T04:11:43.790Z,18.50
2022-08-14T04:16:57.407Z,18.50
2022-08-14T04:19:24.664Z,18.60
2022-08-14T04:22:03.841Z,18.60
2022-08-14T04:24:37.975Z,18.60
2022-08-14T04:27:06.981Z,18.70
2022-08-14T04:29:38.185Z,18.60
2022-08-14T04:33:01.948Z,18.70
2022-08-14T04:34:55.085Z,18.80
2022-08-14T04:37:25.219Z,18.80
2022-08-14T04:39:56.682Z,18.80
2022-08-14T04:42:24.829Z,18.80
2022-08-14T04:44:52.548Z,18.80
2022-08-14T04:47:30.845Z,18.80
2022-08-14T04:49:57.938Z,18.90
2022-08-14T04:52:25.365Z,18.90
2022-08-14T04:57:39.337Z,19.00
2022-08-14T05:00:08.207Z,19.00
2022-08-14T05:02:43.482Z,19.00
2022-08-14T05:05:10.456Z,19.10
2022-08-14T05:07:54.737Z,19.20
2022-08-14T05:10:24.720Z,19.20
2022-08-14T05:13:12.602Z,19.20
2022-08-14T05:15:41.570Z,19.30
2022-08-14T05:18:17.290Z,19.40
2022-08-14T05:21:56.247Z,19.50
2022-08-14T05:23:47.839Z,19.50
2022-08-14T05:26:15.026Z,19.60
2022-08-14T05:31:39.447Z,19.80
2022-08-14T05:37:02.010Z,20.00
2022-08-14T05:39:30.093Z,20.00
2022-08-14T05:44:46.082Z,20.20
2022-08-14T05:47:15.373Z,20.40
2022-08-14T05:49:42.217Z,20.50
2022-08-14T05:52:09.684Z,20.60
2022-08-14T05:54:36.904Z,20.80
2022-08-14T05:57:04.296Z,20.90
2022-08-14T05:59:36.610Z,21.00
2022-08-14T06:02:07.160Z,21.00
2022-08-14T06:04:33.970Z,21.20
2022-08-14T06:07:00.754Z,21.20
2022-08-14T06:09:28.832Z,21.40
2022-08-14T06:14:49.124Z,21.40
2022-08-14T06:17:26.038Z,21.50
2022-08-14T06:19:53.770Z,21.50
2022-08-14T06:22:22.958Z,21.50
2022-08-14T06:27:41.129Z,21.60
2022-08-14T06:30:12.339Z,21.70
2022-08-14T06:32:42.738Z,21.90
2022-08-14T06:35:13.414Z,22.10
2022-08-14T06:37:46.843Z,22.20
2022-08-14T06:40:26.966Z,22.40
2022-08-14T06:45:57.109Z,22.70
2022-08-14T06:48:25.383Z,22.80
2022-08-14T06:50:53.978Z,22.80
2022-08-14T06:53:21.822Z,22.90
2022-08-14T06:55:53.277Z,23.00
2022-08-14T06:58:29.401Z,23.00
2022-08-14T07:00:58.755Z,23.00
2022-08-14T07:03:25.542Z,23.10
2022-08-14T07:05:55.992Z,23.30
2022-08-14T07:08:31.811Z,23.50
2022-08-14T07:11:01.520Z,23.70
2022-08-14T07:13:30.637Z,23.90
2022-08-14T07:15:59.189Z,24.10
2022-08-14T07:18:29.884Z,24.30
2022-08-14T07:20:59.051Z,24.40
2022-08-14T07:23:26.570Z,24.40
2022-08-14T07:25:56.542Z,24.70
2022-08-14T07:28:33.869Z,24.70
2022-08-14T07:31:06.233Z,24.80
2022-08-14T07:33:45.427Z,24.90
2022-08-14T07:36:27.465Z,25.10
2022-08-14T07:39:02.801Z,25.10
2022-08-14T07:41:31.211Z,25.10
2022-08-14T07:44:06.079Z,25.20
2022-08-14T07:46:48.177Z,25.40
2022-08-14T07:49:18.126Z,25.60
2022-08-14T07:54:32.526Z,25.80
2022-08-14T07:57:00.853Z,25.70
2022-08-14T07:59:42.336Z,25.80
2022-08-14T08:02:17.126Z,25.90
2022-08-14T08:04:54.019Z,26.10
2022-08-14T08:07:29.870Z,26.30
2022-08-14T08:09:59.622Z,26.40
2022-08-14T08:12:31.077Z,26.50
2022-08-14T08:15:02.776Z,26.60
2022-08-14T08:17:38.098Z,26.60
2022-08-14T08:20:05.751Z,26.70
2022-08-14T08:22:35.770Z,26.70
2022-08-14T08:25:02.560Z,26.80
2022-08-14T08:27:29.366Z,27.00
2022-08-14T08:30:05.040Z,27.10
2022-08-14T08:32:42.533Z,27.40
2022-08-14T08:35:23.907Z,27.40
2022-08-14T08:38:01.046Z,27.30
2022-08-14T08:40:34.770Z,27.50
2022-08-14T08:43:02.889Z,28.10
2022-08-14T08:45:29.988Z,28.40
2022-08-14T08:50:43.535Z,29.20
2022-08-14T08:53:10.701Z,31.30
2022-08-14T08:55:45.474Z,32.70
2022-08-14T08:58:19.772Z,33.70
2022-08-14T09:00:50.571Z,33.90
2022-08-14T09:03:23.512Z,34.50
2022-08-14T09:05:50.238Z,35.10
2022-08-14T09:08:30.834Z,35.30
2022-08-14T09:11:19.347Z,35.70
2022-08-14T09:13:51.198Z,35.80
2022-08-14T09:16:25.781Z,36.10
2022-08-14T09:18:54.968Z,36.40
2022-08-14T09:21:24.449Z,36.50
2022-08-14T09:24:28.867Z,35.90
2022-08-14T09:26:49.163Z,35.90
2022-08-14T09:29:17.939Z,36.30
2022-08-14T09:31:53.410Z,36.40
2022-08-14T09:34:39.524Z,36.70
2022-08-14T09:37:25.311Z,37.00
2022-08-14T09:40:10.546Z,37.10
2022-08-14T09:43:26.391Z,37.30
2022-08-14T09:45:54.019Z,37.20
2022-08-14T09:48:30.226Z,37.20
2022-08-14T09:54:19.692Z,37.40
2022-08-14T09:56:30.969Z,36.80
2022-08-14T09:59:09.817Z,36.80
2022-08-14T10:01:37.433Z,37.30
2022-08-14T10:07:05.542Z,37.90
2022-08-14T10:09:33.534Z,38.10
2022-08-14T10:12:04.729Z,38.30
2022-08-14T10:14:36.633Z,38.50
2022-08-14T10:17:06.206Z,37.60
2022-08-14T10:19:35.941Z,37.90
2022-08-14T10:23:15.358Z,38.20
2022-08-14T10:24:56.551Z,38.70
2022-08-14T10:27:26.552Z,37.20
2022-08-14T10:30:00.305Z,38.00
2022-08-14T10:32:40.301Z,38.50
2022-08-14T10:35:16.380Z,38.70
2022-08-14T10:37:47.865Z,39.00
2022-08-14T10:40:43.908Z,38.40
2022-08-14T10:43:25.934Z,38.00
2022-08-14T10:46:04.129Z,38.00
2022-08-14T10:48:55.422Z,37.80
2022-08-14T10:51:26.729Z,38.00
2022-08-14T10:53:57.998Z,37.70
2022-08-14T10:56:33.975Z,37.60
2022-08-14T10:59:08.197Z,38.00
2022-08-14T11:01:41.341Z,36.70
2022-08-14T11:04:26.086Z,37.70
2022-08-14T11:06:56.148Z,38.00
2022-08-14T11:09:23.229Z,38.40
2022-08-14T11:12:33.704Z,37.00
2022-08-14T11:14:58.537Z,36.70
2022-08-14T11:17:28.077Z,37.50
2022-08-14T11:20:00.833Z,37.50
2022-08-14T11:22:55.964Z,37.10
2022-08-14T11:25:16.753Z,37.30
2022-08-14T11:27:45.491Z,36.90
2022-08-14T11:30:50.593Z,36.40
2022-08-14T11:38:44.840Z,34.50
2022-08-14T11:41:13.631Z,34.20
2022-08-14T11:43:58.184Z,34.60
2022-08-14T11:46:30.305Z,34.80
2022-08-14T11:49:05.323Z,35.00
2022-08-14T11:51:42.860Z,35.90
2022-08-14T11:54:20.208Z,35.90
2022-08-14T11:57:00.321Z,35.50
2022-08-14T11:59:32.863Z,35.10
2022-08-14T12:03:00.706Z,35.60
2022-08-14T12:05:04.120Z,35.60
2022-08-14T12:07:32.127Z,36.00
2022-08-14T12:09:59.104Z,36.20
2022-08-14T12:12:34.952Z,36.20
2022-08-14T12:15:03.903Z,36.30
2022-08-14T12:17:49.299Z,36.50
2022-08-14T12:20:29.626Z,35.40
2022-08-14T12:26:00.104Z,35.30
2022-08-14T12:28:59.303Z,35.30
2022-08-14T12:31:21.560Z,35.30
2022-08-14T12:36:50.502Z,35.80
2022-08-14T12:39:22.964Z,35.80
2022-08-14T12:41:56.909Z,36.40
2022-08-14T12:44:31.922Z,36.10
2022-08-14T12:47:13.239Z,36.30
2022-08-14T12:49:57.856Z,36.80
2022-08-14T12:52:47.359Z,36.80
2022-08-14T12:55:21.633Z,37.10
2022-08-14T12:57:53.117Z,36.80
2022-08-14T13:00:24.789Z,36.90
2022-08-14T13:02:54.863Z,37.20
2022-08-14T13:05:28.110Z,36.50
2022-08-14T13:07:55.177Z,36.00
2022-08-14T13:10:47.476Z,36.30
2022-08-14T13:13:15.376Z,36.20
2022-08-14T13:15:47.740Z,35.70
2022-08-14T13:18:15.930Z,35.80
2022-08-14T13:20:48.033Z,35.70
2022-08-14T13:23:30.542Z,35.60
2022-08-14T13:29:02.228Z,35.40
2022-08-14T13:31:34.312Z,35.60
2022-08-14T13:34:01.662Z,35.40
2022-08-14T13:36:54.414Z,35.20
2022-08-14T13:39:24.085Z,35.50
2022-08-14T13:41:55.816Z,35.60
2022-08-14T13:44:27.206Z,36.00
2022-08-14T13:46:54.462Z,36.10
2022-08-14T13:49:21.236Z,35.40
2022-08-14T13:51:53.275Z,35.50
2022-08-14T13:54:21.143Z,35.30
2022-08-14T13:56:48.519Z,35.20
2022-08-14T13:59:20.102Z,35.10
2022-08-14T14:01:51.616Z,34.90
2022-08-14T14:04:20.162Z,34.80
2022-08-14T14:06:49.581Z,35.10
2022-08-14T14:09:24.224Z,35.30
2022-08-14T14:11:52.837Z,36.00
2022-08-14T14:14:44.818Z,36.20
2022-08-14T14:23:01.553Z,35.60
2022-08-14T14:28:23.833Z,35.70
2022-08-14T14:30:54.559Z,35.30
2022-08-14T14:36:12.360Z,35.50
2022-08-14T14:38:41.074Z,36.00
2022-08-14T14:43:56.385Z,35.70
2022-08-14T14:46:36.456Z,35.30
2022-08-14T14:49:06.215Z,35.20
2022-08-14T14:51:34.920Z,35.50
2022-08-14T14:54:02.888Z,35.70
2022-08-14T14:56:47.361Z,35.80
2022-08-14T14:59:19.709Z,35.80
2022-08-14T15:01:53.962Z,35.70
2022-08-14T15:04:21.797Z,35.80
2022-08-14T15:06:49.421Z,35.50
2022-08-14T15:09:18.091Z,35.70
2022-08-14T15:11:46.022Z,35.80
2022-08-14T15:14:55.949Z,36.40
2022-08-14T15:17:01.241Z,36.40
2022-08-14T15:19:28.032Z,36.00
2022-08-14T15:21:55.766Z,35.90
2022-08-14T15:24:26.410Z,35.50
2022-08-14T15:26:54.193Z,35.70
2022-08-14T15:29:20.969Z,36.30
2022-08-14T15:31:47.741Z,36.70
2022-08-14T15:34:44.656Z,36.50
2022-08-14T15:37:02.844Z,35.90
2022-08-14T15:39:35.811Z,36.10
2022-08-14T15:44:58.344Z,36.20
2022-08-14T15:47:29.908Z,37.00
2022-08-14T15:49:59.417Z,36.90
2022-08-14T15:52:33.129Z,37.40
2022-08-14T15:55:14.483Z,37.60
2022-08-14T15:58:01.736Z,37.50
2022-08-14T16:00:43.255Z,37.00
2022-08-14T16:03:16.864Z,36.40
2022-08-14T16:08:34.253Z,37.00
2022-08-14T16:11:03.556Z,36.60
2022-08-14T16:13:42.118Z,35.40
2022-08-14T16:16:34.940Z,36.30
2022-08-14T16:19:04.957Z,36.30
2022-08-14T16:21:35.803Z,36.70
2022-08-14T16:26:52.337Z,35.80
2022-08-14T16:29:21.491Z,35.20
2022-08-14T16:31:48.303Z,35.80
2022-08-14T16:34:46.274Z,34.70
2022-08-14T16:37:02.207Z,35.20
2022-08-14T16:39:29.495Z,34.50
2022-08-14T16:42:00.147Z,34.70
2022-08-14T16:47:25.242Z,34.30
2022-08-14T16:50:04.197Z,33.40
2022-08-14T16:52:43.943Z,33.60
2022-08-14T16:55:13.847Z,34.00
2022-08-14T16:57:58.442Z,33.40
2022-08-14T17:00:44.274Z,33.60
2022-08-14T17:03:13.239Z,33.40
2022-08-14T17:05:43.701Z,33.50
2022-08-14T17:08:41.323Z,32.70
2022-08-14T17:11:10.096Z,33.10
2022-08-14T17:13:58.828Z,33.10
2022-08-14T17:16:37.320Z,33.40
2022-08-14T17:19:09.929Z,33.40
2022-08-14T17:21:47.114Z,33.60
2022-08-14T17:24:56.588Z,33.30
2022-08-14T17:27:04.139Z,33.30
2022-08-14T17:29:34.413Z,33.20
2022-08-14T17:32:22.074Z,32.90
2022-08-14T17:34:55.460Z,32.50
2022-08-14T17:37:30.484Z,32.40
2022-08-14T17:42:58.951Z,31.00
2022-08-14T17:45:38.992Z,30.40
2022-08-14T17:49:10.074Z,30.00
2022-08-14T17:51:12.157Z,29.60
2022-08-14T17:53:39.314Z,29.40
2022-08-14T17:56:20.776Z,29.10
2022-08-14T17:58:49.232Z,28.80
2022-08-14T18:01:17.487Z,28.70
2022-08-14T18:03:53.333Z,28.50
2022-08-14T18:06:38.235Z,28.20
2022-08-14T18:09:09.452Z,28.00
2022-08-14T18:12:00.190Z,27.70
2022-08-14T18:14:32.005Z,27.60
2022-08-14T18:17:02.302Z,27.50
2022-08-14T18:19:31.768Z,27.40
2022-08-14T18:24:49.534Z,27.00
2022-08-14T18:27:22.879Z,26.90
2022-08-14T18:29:56.645Z,26.80
2022-08-14T18:32:27.464Z,26.70
2022-08-14T18:35:02.705Z,26.50
2022-08-14T18:37:38.768Z,26.40
2022-08-14T18:43:04.214Z,26.20
2022-08-14T18:45:41.231Z,26.10
2022-08-14T18:48:19.438Z,26.00
2022-08-14T18:50:52.430Z,25.90
2022-08-14T18:53:25.278Z,25.80
2022-08-14T18:56:09.247Z,25.70
2022-08-14T18:58:57.049Z,25.60
2022-08-14T19:01:27.469Z,25.50
2022-08-14T19:03:57.522Z,25.40
2022-08-14T19:06:42.980Z,25.30
2022-08-14T19:09:50.390Z,25.20
2022-08-14T19:12:51.366Z,25.10
2022-08-14T19:15:30.173Z,25.10
2022-08-14T19:18:15.092Z,24.90
2022-08-14T19:21:22.319Z,24.80
2022-08-14T19:24:27.812Z,24.70
2022-08-14T19:27:24.226Z,24.60
2022-08-14T19:30:10.939Z,24.60
2022-08-14T19:32:50.742Z,24.50
2022-08-14T19:35:18.622Z,24.40
2022-08-14T19:37:52.163Z,24.40
2022-08-14T19:40:33.244Z,24.30
2022-08-14T19:43:03.043Z,24.20
2022-08-14T19:45:34.105Z,24.10
2022-08-14T19:48:02.241Z,24.00
2022-08-14T19:50:38.687Z,24.00
2022-08-14T19:53:10.846Z,23.90
2022-08-14T19:55:39.699Z,23.80
2022-08-14T19:58:12.883Z,23.70
2022-08-14T20:00:52.458Z,23.70
2022-08-14T20:03:24.139Z,23.70
2022-08-14T20:06:01.415Z,23.60
2022-08-14T20:10:59.613Z,23.50
2022-08-14T20:12:00.432Z,23.50
2022-08-14T20:17:06.789Z,23.30
2022-08-14T20:19:37.766Z,23.30
2022-08-14T20:22:37.218Z,23.20
2022-08-14T20:24:56.522Z,23.10
2022-08-14T20:27:33.267Z,23.20
2022-08-14T20:30:28.922Z,23.10
2022-08-14T20:32:53.852Z,23.10
2022-08-14T20:35:35.299Z,23.00
2022-08-14T20:38:31.532Z,23.00
2022-08-14T20:43:52.811Z,22.70
2022-08-14T20:46:31.233Z,22.60
2022-08-14T20:51:58.515Z,22.50
2022-08-14T20:54:33.979Z,22.60
2022-08-14T20:57:14.195Z,22.50
2022-08-14T20:59:51.932Z,22.50
2022-08-14T21:02:46.428Z,22.50
2022-08-14T21:05:19.760Z,22.40
2022-08-14T21:10:36.683Z,22.30
2022-08-14T21:14:09.120Z,22.20
2022-08-14T21:15:59.107Z,22.20
2022-08-14T21:18:34.390Z,22.10
2022-08-14T21:21:07.958Z,22.10
2022-08-14T21:23:53.715Z,22.00
2022-08-14T21:26:51.099Z,22.00
2022-08-14T21:29:11.992Z,21.90
2022-08-14T21:31:40.711Z,21.90
2022-08-14T21:34:27.508Z,21.80
2022-08-14T21:36:56.718Z,21.80
2022-08-14T21:39:24.709Z,21.70
2022-08-14T21:41:58.449Z,21.70
2022-08-14T21:47:16.108Z,21.60
2022-08-14T21:49:46.250Z,21.70
2022-08-14T21:52:52.011Z,21.60
2022-08-14T21:55:10.388Z,21.50
2022-08-14T21:58:46.117Z,21.50
2022-08-14T22:00:35.151Z,21.40
2022-08-14T22:03:05.758Z,21.40
2022-08-14T22:05:32.875Z,21.40
2022-08-14T22:08:02.539Z,21.40
2022-08-14T22:10:29.653Z,21.40
2022-08-14T22:13:00.586Z,21.30
2022-08-14T22:15:29.745Z,21.30
2022-08-14T22:17:57.425Z,21.20
2022-08-14T22:20:25.614Z,21.20
2022-08-14T22:22:55.959Z,21.10
2022-08-14T22:25:33.114Z,21.10
2022-08-14T22:28:00.686Z,21.10
2022-08-14T22:33:14.760Z,21.00
2022-08-14T22:35:44.290Z,21.00
2022-08-14T22:38:37.289Z,21.00
2022-08-14T22:41:25.599Z,20.90
2022-08-14T22:43:48.723Z,20.90
2022-08-14T22:46:20.438Z,20.90
2022-08-14T22:48:48.500Z,20.80
2022-08-14T22:51:18.102Z,20.80
2022-08-14T22:53:46.791Z,20.70
2022-08-14T22:56:20.538Z,20.80
2022-08-14T22:58:53.590Z,20.70
2022-08-14T23:01:46.159Z,20.60
2022-08-14T23:04:34.220Z,20.80
2022-08-14T23:07:04.766Z,20.80
2022-08-14T23:09:35.854Z,20.80
2022-08-14T23:12:04.012Z,20.80
2022-08-14T23:14:30.913Z,20.80
2022-08-14T23:16:57.981Z,20.90
2022-08-14T23:19:33.732Z,20.90
2022-08-14T23:22:03.887Z,20.90
2022-08-14T23:24:30.982Z,21.00
2022-08-14T23:29:44.552Z,20.90
2022-08-14T23:32:15.447Z,20.80
2022-08-14T23:34:48.233Z,20.70
2022-08-14T23:37:18.575Z,20.70
2022-08-14T23:39:45.379Z,20.80
2022-08-14T23:42:17.839Z,20.80
2022-08-14T23:44:45.749Z,20.90
2022-08-14T23:47:26.315Z,20.80
2022-08-14T23:50:00.869Z,20.70
2022-08-14T23:52:50.916Z,20.70
2022-08-14T23:55:16.838Z,20.70
2022-08-14T23:57:58.103Z,20.60
